Terminal Aerodrome Forecast
Issued by NWS

Home | Current Version | Previous Version | Text Only | Print | Product List | Glossary On
Versions: 1 2 3 4 5 6 7 8 9 10 11 12 13 14 15 16 17 18 19 20 21 22 23 24 25
000
FTUS45 KREV 191100
TAFCXP
TAF
KCXP 191120Z 1912/2012 VRB03KT P6SM SCT060 BKN120
     FM191500 17008KT P6SM SCT060 BKN100
     FM191800 23012G20KT P6SM VCSH BKN035 OVC045
     FM200200 VRB04KT P6SM BKN040=

USA.gov is the U.S. government's official web portal to all federal, state and local government web resources and services.